Time;durP1;ratioP1;P1;durP2;ratioP2;P2;SDS_P1;SDS_P2;PMS_P1;PMS_P2;Temp;Humidity;BMP_temperature;BMP_pressure;BME280_temperature;BME280_humidity;BME280_pressure;Samples;Min_cycle;Max_cycle;Signal;HPM_P1;HPM_P2
2023/03/22 00:09:59;;;;;;;193.63;51.72;;;;;;;;;;12821739;19;20738;-67
2023/03/22 00:15:06;;;;;;;93.07;30.60;;;;;;;;;;12820427;19;20398;-70
2023/03/22 00:26:02;;;;;;;63.83;24.58;;;;;;;;;;12720556;19;2005144;-67
2023/03/22 00:31:01;;;;;;;48.80;22.67;;;;;;;;;;12819341;19;20351;-68
2023/03/22 00:35:24;;;;;;;162.93;46.75;;;;;;;;;;12818477;19;20318;-68
2023/03/22 00:46:24;;;;;;;108.65;35.72;;;;;;;;;;12724547;19;2005119;-69
2023/03/22 00:51:20;;;;;;;161.23;47.65;;;;;;;;;;12822331;19;20014;-68
2023/03/22 00:56:32;;;;;;;49.38;20.67;;;;;;;;;;12822116;19;20089;-68
2023/03/22 01:17:18;;;;;;;37.42;19.25;;;;;;;;;;12824367;19;20425;-68
2023/03/22 01:22:24;;;;;;;38.55;18.85;;;;;;;;;;12825877;19;20486;-68
2023/03/22 01:27:24;;;;;;;52.28;22.67;;;;;;;;;;12820366;19;20456;-68
2023/03/22 01:32:19;;;;;;;36.60;18.05;;;;;;;;;;12822224;19;20156;-69
2023/03/22 01:43:31;;;;;;;24.52;15.02;;;;;;;;;;12824180;19;20485;-68
2023/03/22 01:48:28;;;;;;;39.85;19.40;;;;;;;;;;12822949;19;20299;-68
2023/03/22 02:04:15;;;;;;;36.33;18.38;;;;;;;;;;12823429;19;20477;-68
2023/03/22 02:15:25;;;;;;;24.63;14.70;;;;;;;;;;12722788;19;2005541;-68
2023/03/22 02:20:55;;;;;;;30.55;15.82;;;;;;;;;;12822365;19;20369;-68
2023/03/22 02:26:17;;;;;;;32.90;16.80;;;;;;;;;;12822585;19;20511;-69
2023/03/22 02:31:55;;;;;;;24.13;14.18;;;;;;;;;;12814197;19;20506;-68
2023/03/22 02:36:54;;;;;;;54.40;19.05;;;;;;;;;;12813638;19;20433;-67
2023/03/22 02:42:16;;;;;;;81.30;25.02;;;;;;;;;;12822095;19;20481;-68
2023/03/22 02:47:22;;;;;;;29.77;15.30;;;;;;;;;;12819901;19;20295;-67
2023/03/22 02:52:24;;;;;;;21.48;12.57;;;;;;;;;;12820164;19;20314;-68
2023/03/22 03:03:29;;;;;;;27.10;14.02;;;;;;;;;;12819305;19;20062;-68
2023/03/22 03:08:14;;;;;;;23.05;12.38;;;;;;;;;;12818276;19;20300;-69
2023/03/22 03:12:57;;;;;;;21.58;12.82;;;;;;;;;;12820012;19;20317;-68
2023/03/22 03:24:13;;;;;;;23.75;13.73;;;;;;;;;;12814541;19;20097;-68
2023/03/22 03:36:05;;;;;;;31.52;14.77;;;;;;;;;;12718205;19;2005088;-68
2023/03/22 03:41:17;;;;;;;25.35;14.02;;;;;;;;;;12816106;19;20314;-68
2023/03/22 03:46:14;;;;;;;19.42;12.15;;;;;;;;;;12816715;19;20430;-68
2023/03/22 03:51:15;;;;;;;25.27;14.35;;;;;;;;;;12808185;19;20314;-68
2023/03/22 03:55:55;;;;;;;26.95;14.30;;;;;;;;;;12810210;19;20007;-68
2023/03/22 04:06:22;;;;;;;25.58;12.88;;;;;;;;;;12808114;19;20546;-68
2023/03/22 04:10:55;;;;;;;27.80;13.27;;;;;;;;;;12819969;19;20437;-67
2023/03/22 04:21:33;;;;;;;37.85;16.15;;;;;;;;;;12819195;19;20015;-67
2023/03/22 04:26:15;;;;;;;30.88;17.23;;;;;;;;;;12822269;19;20074;-68
2023/03/22 04:30:34;;;;;;;33.50;16.88;;;;;;;;;;12820967;19;20501;-68
2023/03/22 04:35:58;;;;;;;23.70;13.27;;;;;;;;;;12821623;19;20144;-68
2023/03/22 04:40:37;;;;;;;30.33;15.45;;;;;;;;;;12818708;19;20485;-67
2023/03/22 04:45:27;;;;;;;;;;;;;;;;;;12819831;19;20295;-67
2023/03/22 04:56:01;;;;;;;31.35;14.07;;;;;;;;;;12825268;19;20314;-68
2023/03/22 05:00:57;;;;;;;71.05;25.30;;;;;;;;;;12823467;19;20839;-67
2023/03/22 05:05:23;;;;;;;30.33;15.80;;;;;;;;;;12830158;19;20366;-67
2023/03/22 05:16:09;;;;;;;39.08;18.77;;;;;;;;;;12823988;19;20313;-68
2023/03/22 05:20:58;;;;;;;59.65;25.63;;;;;;;;;;12824146;19;20426;-67
2023/03/22 05:26:28;;;;;;;22.98;14.25;;;;;;;;;;12826097;19;20507;-68
2023/03/22 05:37:02;;;;;;;25.35;16.08;;;;;;;;;;12824410;19;20402;-68
2023/03/22 05:42:25;;;;;;;22.15;13.73;;;;;;;;;;12825856;19;20428;-69
2023/03/22 05:47:27;;;;;;;26.70;15.57;;;;;;;;;;12822405;19;20302;-67
2023/03/22 05:52:26;;;;;;;23.65;14.15;;;;;;;;;;12824492;19;20031;-68
2023/03/22 05:57:15;;;;;;;36.78;17.48;;;;;;;;;;12823572;19;20434;-68
2023/03/22 06:07:58;;;;;;;24.08;13.73;;;;;;;;;;12819853;19;20708;-67
2023/03/22 06:23:55;;;;;;;24.27;13.57;;;;;;;;;;12814553;19;20405;-68
2023/03/22 06:29:06;;;;;;;16.95;10.38;;;;;;;;;;12812145;19;20402;-68
2023/03/22 06:33:44;;;;;;;16.90;10.93;;;;;;;;;;12809813;19;20433;-68
2023/03/22 06:50:15;;;;;;;18.35;11.15;;;;;;;;;;12813364;19;20426;-67
2023/03/22 06:54:59;;;;;;;19.67;10.63;;;;;;;;;;12813142;19;20429;-67
2023/03/22 07:00:21;;;;;;;20.42;12.65;;;;;;;;;;12813416;19;20777;-67
2023/03/22 07:05:26;;;;;;;17.45;10.25;;;;;;;;;;12810305;19;20393;-67
2023/03/22 07:10:27;;;;;;;15.60;9.52;;;;;;;;;;12811353;19;20396;-67
2023/03/22 07:21:28;;;;;;;18.85;11.05;;;;;;;;;;12818619;19;20222;-67
2023/03/22 07:26:29;;;;;;;15.82;10.35;;;;;;;;;;12820251;19;20438;-67
2023/03/22 07:31:10;;;;;;;17.92;10.48;;;;;;;;;;12819382;19;20493;-67
2023/03/22 07:35:54;;;;;;;16.17;10.18;;;;;;;;;;12816290;19;20469;-67
2023/03/22 07:40:26;;;;;;;16.27;10.35;;;;;;;;;;12819796;19;20811;-67
2023/03/22 07:50:36;;;;;;;;;;;;;;;;;;12823326;19;20440;-67
2023/03/22 07:55:34;;;;;;;16.45;9.43;;;;;;;;;;12823732;19;20035;-67
2023/03/22 08:00:14;;;;;;;17.20;10.18;;;;;;;;;;12823422;19;20442;-69
2023/03/22 08:05:34;;;;;;;15.52;9.68;;;;;;;;;;12818910;19;20326;-67
2023/03/22 08:10:18;;;;;;;16.75;9.60;;;;;;;;;;12822852;19;20210;-67
2023/03/22 08:14:56;;;;;;;16.05;9.65;;;;;;;;;;12821799;19;20430;-67
2023/03/22 08:19:18;;;;;;;16.05;9.70;;;;;;;;;;12821167;19;20583;-67
2023/03/22 08:24:03;;;;;;;17.02;10.50;;;;;;;;;;12819706;19;20896;-67
2023/03/22 08:28:57;;;;;;;26.07;14.80;;;;;;;;;;12820027;19;20304;-68
2023/03/22 08:33:20;;;;;;;65.68;23.48;;;;;;;;;;12825873;19;20080;-68
2023/03/22 08:39:03;;;;;;;14.48;8.82;;;;;;;;;;12825510;19;20007;-67
2023/03/22 08:43:58;;;;;;;11.93;6.63;;;;;;;;;;12819619;19;20429;-68
2023/03/22 08:48:23;;;;;;;13.45;7.20;;;;;;;;;;12820301;19;20497;-68
2023/03/22 08:53:14;;;;;;;11.68;7.50;;;;;;;;;;12821680;19;20637;-67
2023/03/22 08:59:25;;;;;;;10.98;6.20;;;;;;;;;;12818190;19;20339;-67
2023/03/22 09:03:56;;;;;;;9.32;4.97;;;;;;;;;;12819462;19;20543;-67
2023/03/22 09:15:01;;;;;;;9.82;5.53;;;;;;;;;;12817926;19;20034;-68
2023/03/22 09:19:57;;;;;;;7.75;4.40;;;;;;;;;;12817736;19;20422;-69
2023/03/22 09:32:07;;;;;;;7.50;3.90;;;;;;;;;;12717283;19;2005423;-68
2023/03/22 09:37:08;;;;;;;8.73;4.65;;;;;;;;;;12720213;19;2007332;-67
2023/03/22 09:42:00;;;;;;;7.07;4.47;;;;;;;;;;12823991;19;20010;-68
2023/03/22 09:53:24;;;;;;;6.10;3.90;;;;;;;;;;12816070;19;20779;-68
2023/03/22 09:58:54;;;;;;;6.53;3.60;;;;;;;;;;12815955;19;20528;-68
2023/03/22 10:04:31;;;;;;;;;;;;;;;;;;;;;
2023/03/22 10:15:25;;;;;;;5.78;4.18;;;;;;;;;;12814728;19;20429;-67
2023/03/22 10:21:22;;;;;;;8.82;4.95;;;;;;;;;;12815742;19;20018;-67
2023/03/22 10:32:16;;;;;;;8.88;5.57;;;;;;;;;;12817611;19;20430;-67
2023/03/22 10:36:54;;;;;;;6.65;4.30;;;;;;;;;;12823014;19;20437;-67
2023/03/22 10:41:33;;;;;;;11.80;5.35;;;;;;;;;;12817042;19;20406;-68
2023/03/22 10:46:27;;;;;;;11.15;6.20;;;;;;;;;;12818940;19;20414;-68
2023/03/22 10:51:22;;;;;;;10.75;7.00;;;;;;;;;;12818696;19;20025;-69
2023/03/22 10:56:36;;;;;;;9.85;6.20;;;;;;;;;;12820871;19;20460;-69
2023/03/22 11:02:31;;;;;;;10.45;5.93;;;;;;;;;;12719573;19;2004894;-68
2023/03/22 11:08:03;;;;;;;10.25;6.45;;;;;;;;;;12818490;19;20318;-68
2023/03/22 11:24:48;;;;;;;13.57;6.53;;;;;;;;;;12817308;19;20552;-68
2023/03/22 11:30:48;;;;;;;6.90;4.82;;;;;;;;;;12818987;19;20357;-69
2023/03/22 11:41:35;;;;;;;9.80;5.47;;;;;;;;;;12814878;19;20003;-68
2023/03/22 11:52:58;;;;;;;8.30;5.68;;;;;;;;;;12810313;19;20874;-68
2023/03/22 11:58:03;;;;;;;8.68;4.75;;;;;;;;;;12809272;19;20431;-68
2023/03/22 12:10:02;;;;;;;10.68;5.32;;;;;;;;;;12813886;19;20302;-70
2023/03/22 12:15:21;;;;;;;14.38;5.80;;;;;;;;;;12714999;19;2004616;-67
2023/03/22 12:26:25;;;;;;;10.10;6.32;;;;;;;;;;12714603;19;2005148;-68
2023/03/22 12:31:23;;;;;;;12.57;7.40;;;;;;;;;;12817011;19;20306;-68
2023/03/22 12:42:23;;;;;;;14.43;6.88;;;;;;;;;;12718766;19;2005924;-69
2023/03/22 12:47:11;;;;;;;15.13;6.22;;;;;;;;;;12821353;19;20425;-68
2023/03/22 13:03:58;;;;;;;9.35;4.82;;;;;;;;;;12825448;19;20307;-67
2023/03/22 13:16:09;;;;;;;9.48;3.95;;;;;;;;;;12724801;19;2004996;-68
2023/03/22 13:21:25;;;;;;;7.63;3.75;;;;;;;;;;12824732;19;20388;-67
2023/03/22 13:26:57;;;;;;;7.20;3.70;;;;;;;;;;12826618;19;20066;-68
2023/03/22 13:32:05;;;;;;;4.20;2.60;;;;;;;;;;12827318;19;20373;-67
2023/03/22 13:36:56;;;;;;;5.55;3.70;;;;;;;;;;12825032;19;20327;-68
2023/03/22 13:41:35;;;;;;;6.43;3.45;;;;;;;;;;12824092;19;20356;-67
2023/03/22 13:53:00;;;;;;;5.95;2.15;;;;;;;;;;12815388;19;20318;-68
2023/03/22 13:58:27;;;;;;;6.45;2.70;;;;;;;;;;12825201;19;20450;-68
2023/03/22 14:03:54;;;;;;;4.68;2.00;;;;;;;;;;12821320;19;20074;-67
2023/03/22 14:09:27;;;;;;;3.85;2.15;;;;;;;;;;12820111;19;20370;-68
2023/03/22 14:21:10;;;;;;;5.47;3.10;;;;;;;;;;12720540;19;2005501;-67
2023/03/22 14:26:28;;;;;;;3.28;2.08;;;;;;;;;;12812898;19;20445;-67
2023/03/22 14:31:23;;;;;;;4.75;2.35;;;;;;;;;;12814056;19;20007;-67
2023/03/22 14:36:36;;;;;;;3.80;1.70;;;;;;;;;;12814972;19;20058;-67
2023/03/22 14:42:05;;;;;;;;;;;;;;;;;;12813700;19;20326;-68
2023/03/22 14:47:18;;;;;;;6.32;4.85;;;;;;;;;;12809527;19;20579;-68
2023/03/22 14:51:55;;;;;;;4.07;2.78;;;;;;;;;;12813394;19;20014;-67
2023/03/22 14:57:14;;;;;;;9.45;5.68;;;;;;;;;;12813055;19;20584;-68
2023/03/22 15:02:53;;;;;;;8.32;5.28;;;;;;;;;;12813942;19;20435;-67
2023/03/22 15:08:17;;;;;;;5.18;3.40;;;;;;;;;;12808579;19;20388;-68
2023/03/22 15:12:58;;;;;;;7.10;4.07;;;;;;;;;;12811214;19;20378;-67
2023/03/22 15:17:51;;;;;;;3.83;2.58;;;;;;;;;;12815571;19;20457;-67
2023/03/22 15:23:16;;;;;;;8.93;5.30;;;;;;;;;;12812305;19;20445;-68
2023/03/22 15:28:45;;;;;;;28.85;17.17;;;;;;;;;;12811600;19;20460;-68
2023/03/22 15:33:38;;;;;;;;;;;;;;;;;;12812131;19;20057;-68
2023/03/22 15:38:31;;;;;;;7.97;5.95;;;;;;;;;;12813615;19;20267;-68
2023/03/22 15:44:35;;;;;;;8.27;3.67;;;;;;;;;;12816536;19;20351;-68
2023/03/22 15:50:03;;;;;;;9.35;7.10;;;;;;;;;;12813577;19;20002;-68
2023/03/22 16:06:14;;;;;;;6.72;3.28;;;;;;;;;;12824183;19;20387;-68
2023/03/22 16:17:35;;;;;;;3.53;2.53;;;;;;;;;;12719269;19;2005032;-67
2023/03/22 16:23:00;;;;;;;4.68;2.45;;;;;;;;;;12820139;19;20630;-67
2023/03/22 16:27:53;;;;;;;7.95;4.95;;;;;;;;;;12821956;19;20522;-67
2023/03/22 16:32:56;;;;;;;13.23;7.90;;;;;;;;;;12819537;19;20915;-66
2023/03/22 16:38:21;;;;;;;25.70;13.85;;;;;;;;;;12827583;19;20014;-67
2023/03/22 16:49:04;;;;;;;;;;;;;;;;;;12820004;19;20144;-67
2023/03/22 16:54:01;;;;;;;8.88;3.20;;;;;;;;;;12819341;19;20302;-68
2023/03/22 16:59:00;;;;;;;4.25;2.15;;;;;;;;;;12825614;19;20444;-68
2023/03/22 17:09:31;;;;;;;29.58;12.80;;;;;;;;;;12825921;19;20426;-67
2023/03/22 17:14:06;;;;;;;25.25;10.52;;;;;;;;;;12824587;19;20021;-68
2023/03/22 17:25:35;;;;;;;18.67;9.98;;;;;;;;;;12823617;19;20425;-68
2023/03/22 17:30:36;;;;;;;9.07;4.78;;;;;;;;;;12823162;19;20493;-68
2023/03/22 17:36:32;;;;;;;22.73;7.63;;;;;;;;;;12826419;19;20175;-68
2023/03/22 17:41:53;;;;;;;34.20;14.23;;;;;;;;;;12816208;19;20437;-69
2023/03/22 17:46:30;;;;;;;31.75;13.68;;;;;;;;;;12823487;19;20443;-68
2023/03/22 17:52:04;;;;;;;28.67;11.05;;;;;;;;;;12821474;19;20422;-67
2023/03/22 17:57:00;;;;;;;21.30;9.65;;;;;;;;;;12816780;19;20446;-68
2023/03/22 18:01:59;;;;;;;21.83;8.50;;;;;;;;;;12815524;19;20326;-67
2023/03/22 18:06:19;;;;;;;19.70;7.15;;;;;;;;;;12816172;19;20296;-67
2023/03/22 18:11:26;;;;;;;12.70;5.97;;;;;;;;;;12817156;19;20429;-66
2023/03/22 18:16:29;;;;;;;16.33;5.20;;;;;;;;;;12814116;19;20373;-69
2023/03/22 18:22:06;;;;;;;13.93;6.15;;;;;;;;;;12813364;19;20404;-68
2023/03/22 18:27:15;;;;;;;17.90;7.57;;;;;;;;;;12815363;19;20675;-68
2023/03/22 18:32:32;;;;;;;16.30;7.07;;;;;;;;;;12812408;19;20306;-67
2023/03/22 18:37:17;;;;;;;19.80;6.38;;;;;;;;;;12811834;19;20508;-68
2023/03/22 18:42:10;;;;;;;13.48;6.30;;;;;;;;;;12814855;19;20547;-67
2023/03/22 18:47:36;;;;;;;18.92;9.50;;;;;;;;;;12812899;19;20317;-68
2023/03/22 18:52:13;;;;;;;28.20;10.95;;;;;;;;;;12809225;19;20779;-68
2023/03/22 18:56:53;;;;;;;22.25;10.60;;;;;;;;;;12813648;19;20324;-68
2023/03/22 19:02:26;;;;;;;21.40;9.65;;;;;;;;;;12813459;19;20310;-68
2023/03/22 19:07:31;;;;;;;19.50;7.35;;;;;;;;;;12810476;19;20378;-68
2023/03/22 19:12:17;;;;;;;23.23;10.02;;;;;;;;;;12813055;19;20445;-68
2023/03/22 19:34:10;;;;;;;15.35;7.03;;;;;;;;;;12819344;19;20372;-68
2023/03/22 19:39:25;;;;;;;18.42;8.43;;;;;;;;;;12812386;19;20454;-68
2023/03/22 19:44:53;;;;;;;49.88;19.35;;;;;;;;;;12823092;19;20321;-68
2023/03/22 19:55:50;;;;;;;33.40;12.95;;;;;;;;;;12816434;19;20520;-68
2023/03/22 20:00:57;;;;;;;44.15;17.63;;;;;;;;;;12820020;19;20378;-67
2023/03/22 20:05:18;;;;;;;63.45;21.80;;;;;;;;;;12826756;19;20715;-68
2023/03/22 20:09:52;;;;;;;34.95;14.75;;;;;;;;;;12831019;19;20021;-68
2023/03/22 20:14:54;;;;;;;31.63;11.68;;;;;;;;;;12828923;19;20022;-67
2023/03/22 20:19:53;;;;;;;23.88;11.43;;;;;;;;;;12826145;19;20540;-67
2023/03/22 20:35:26;;;;;;;37.13;14.65;;;;;;;;;;12827120;19;20006;-67
2023/03/22 20:39:59;;;;;;;45.67;16.95;;;;;;;;;;12829990;19;20516;-67
2023/03/22 20:45:12;;;;;;;45.15;15.35;;;;;;;;;;12819755;19;20548;-67
2023/03/22 20:49:59;;;;;;;42.75;13.85;;;;;;;;;;12819006;19;20300;-67
2023/03/22 20:55:03;;;;;;;32.53;12.10;;;;;;;;;;12818769;19;20078;-68
2023/03/22 21:01:19;;;;;;;32.33;12.30;;;;;;;;;;12818369;19;20291;-68
2023/03/22 21:06:13;;;;;;;43.85;13.38;;;;;;;;;;12816835;19;20006;-69
2023/03/22 21:22:55;;;;;;;22.48;10.05;;;;;;;;;;12816126;19;20304;-68
2023/03/22 21:27:24;;;;;;;25.80;11.13;;;;;;;;;;12815926;19;20514;-67
2023/03/22 21:37:20;;;;;;;34.47;11.75;;;;;;;;;;12822583;19;20010;-68
2023/03/22 21:42:25;;;;;;;30.42;10.52;;;;;;;;;;12822885;19;20303;-67
2023/03/22 21:54:04;;;;;;;44.00;14.17;;;;;;;;;;12718682;19;2004958;-68
2023/03/22 21:58:47;;;;;;;35.67;13.30;;;;;;;;;;12817081;19;20310;-67
2023/03/22 22:03:15;;;;;;;38.15;12.65;;;;;;;;;;12821976;19;20473;-68
2023/03/22 22:14:18;;;;;;;34.65;11.27;;;;;;;;;;12822080;19;20363;-67
2023/03/22 22:18:53;;;;;;;29.45;12.25;;;;;;;;;;12823831;19;20440;-67
2023/03/22 22:24:09;;;;;;;25.95;11.93;;;;;;;;;;12821200;19;20537;-67
2023/03/22 22:34:32;;;;;;;27.35;11.27;;;;;;;;;;12813442;19;20418;-67
2023/03/22 22:40:28;;;;;;;25.10;11.77;;;;;;;;;;12814499;19;20106;-68
2023/03/22 22:45:26;;;;;;;30.73;12.15;;;;;;;;;;12811988;19;20338;-67
2023/03/22 22:50:31;;;;;;;29.08;12.55;;;;;;;;;;12812225;19;20307;-67
2023/03/22 22:55:14;;;;;;;37.75;13.77;;;;;;;;;;12815071;19;20022;-68
2023/03/22 23:00:05;;;;;;;27.30;12.32;;;;;;;;;;12813813;19;20659;-67
2023/03/22 23:05:01;;;;;;;25.63;11.50;;;;;;;;;;12816558;19;20887;-67
2023/03/22 23:09:28;;;;;;;29.10;11.75;;;;;;;;;;12820388;19;20460;-68
2023/03/22 23:20:12;;;;;;;23.40;10.68;;;;;;;;;;12814441;19;20390;-67
2023/03/22 23:24:35;;;;;;;23.90;10.13;;;;;;;;;;12822462;19;20440;-68
2023/03/22 23:29:59;;;;;;;22.75;9.63;;;;;;;;;;12818761;19;20479;-67
2023/03/22 23:40:11;;;;;;;19.85;9.80;;;;;;;;;;12812843;19;20429;-67
2023/03/22 23:45:08;;;;;;;22.50;10.60;;;;;;;;;;12818115;19;20518;-67
2023/03/22 23:50:18;;;;;;;17.15;8.18;;;;;;;;;;12809314;19;20304;-67
2023/03/22 23:55:29;;;;;;;18.13;8.48;;;;;;;;;;12809895;19;20418;-67
2023/03/22 23:59:55;;;;;;;19.13;9.27;;;;;;;;;;12804499;19;20489;-67
